sensor_id;sensor_type;location;lat;lon;timestamp;temperature;humidity
336;DHT22;156;48.738;9.228;2023-02-25T00:00:34;3.60;97.10
336;DHT22;156;48.738;9.228;2023-02-25T00:03:01;3.50;97.00
336;DHT22;156;48.738;9.228;2023-02-25T00:05:28;3.60;98.90
336;DHT22;156;48.738;9.228;2023-02-25T00:07:55;3.50;99.50
336;DHT22;156;48.738;9.228;2023-02-25T00:10:22;3.40;99.50
336;DHT22;156;48.738;9.228;2023-02-25T00:12:50;3.40;99.60
336;DHT22;156;48.738;9.228;2023-02-25T00:15:17;4.70;99.90
336;DHT22;156;48.738;9.228;2023-02-25T00:17:44;3.30;99.90
336;DHT22;156;48.738;9.228;2023-02-25T00:20:11;3.30;99.90
336;DHT22;156;48.738;9.228;2023-02-25T00:22:38;3.30;99.90
336;DHT22;156;48.738;9.228;2023-02-25T00:25:06;3.30;99.90
336;DHT22;156;48.738;9.228;2023-02-25T00:27:34;3.30;99.90
336;DHT22;156;48.738;9.228;2023-02-25T00:30:03;3.30;99.90
336;DHT22;156;48.738;9.228;2023-02-25T00:32:30;3.30;99.90
336;DHT22;156;48.738;9.228;2023-02-25T00:34:57;3.40;99.90
336;DHT22;156;48.738;9.228;2023-02-25T00:37:24;3.30;99.90
336;DHT22;156;48.738;9.228;2023-02-25T00:39:51;3.30;99.90
336;DHT22;156;48.738;9.228;2023-02-25T00:42:18;3.40;99.90
336;DHT22;156;48.738;9.228;2023-02-25T00:44:46;3.40;99.90
336;DHT22;156;48.738;9.228;2023-02-25T00:47:16;3.40;99.90
336;DHT22;156;48.738;9.228;2023-02-25T00:49:44;3.40;99.90
336;DHT22;156;48.738;9.228;2023-02-25T00:52:13;3.40;99.90
336;DHT22;156;48.738;9.228;2023-02-25T00:54:40;3.40;99.90
336;DHT22;156;48.738;9.228;2023-02-25T00:57:06;3.50;98.50
336;DHT22;156;48.738;9.228;2023-02-25T00:59:33;3.40;95.30
336;DHT22;156;48.738;9.228;2023-02-25T01:02:00;3.50;93.10
336;DHT22;156;48.738;9.228;2023-02-25T01:04:28;3.40;86.20
336;DHT22;156;48.738;9.228;2023-02-25T01:06:55;3.40;80.80
336;DHT22;156;48.738;9.228;2023-02-25T01:09:22;3.40;72.40
336;DHT22;156;48.738;9.228;2023-02-25T01:11:50;3.50;73.20
336;DHT22;156;48.738;9.228;2023-02-25T01:14:18;3.60;73.60
336;DHT22;156;48.738;9.228;2023-02-25T01:16:46;3.60;61.70
336;DHT22;156;48.738;9.228;2023-02-25T01:19:15;3.60;52.00
336;DHT22;156;48.738;9.228;2023-02-25T01:21:45;3.60;49.10
336;DHT22;156;48.738;9.228;2023-02-25T01:24:14;3.60;39.20
336;DHT22;156;48.738;9.228;2023-02-25T01:26:44;3.60;34.50
336;DHT22;156;48.738;9.228;2023-02-25T01:29:12;3.60;33.00
336;DHT22;156;48.738;9.228;2023-02-25T01:31:40;3.60;28.40
336;DHT22;156;48.738;9.228;2023-02-25T01:34:09;3.50;25.50
336;DHT22;156;48.738;9.228;2023-02-25T01:36:36;3.60;22.50
336;DHT22;156;48.738;9.228;2023-02-25T01:39:05;3.50;21.50
336;DHT22;156;48.738;9.228;2023-02-25T01:41:34;3.50;22.20
336;DHT22;156;48.738;9.228;2023-02-25T01:44:07;3.50;18.40
336;DHT22;156;48.738;9.228;2023-02-25T01:46:34;3.50;18.40
336;DHT22;156;48.738;9.228;2023-02-25T01:49:02;3.50;18.20
336;DHT22;156;48.738;9.228;2023-02-25T01:51:30;3.50;14.40
336;DHT22;156;48.738;9.228;2023-02-25T01:53:58;3.50;14.20
336;DHT22;156;48.738;9.228;2023-02-25T01:56:29;3.40;13.60
336;DHT22;156;48.738;9.228;2023-02-25T01:58:57;3.40;14.00
336;DHT22;156;48.738;9.228;2023-02-25T02:01:30;3.40;10.00
336;DHT22;156;48.738;9.228;2023-02-25T02:03:59;3.50;2.50
336;DHT22;156;48.738;9.228;2023-02-25T02:06:30;3.40;5.80
336;DHT22;156;48.738;9.228;2023-02-25T02:09:00;3.40;6.10
336;DHT22;156;48.738;9.228;2023-02-25T02:11:28;3.30;5.40
336;DHT22;156;48.738;9.228;2023-02-25T02:13:57;3.30;5.70
336;DHT22;156;48.738;9.228;2023-02-25T02:16:39;3.30;5.50
336;DHT22;156;48.738;9.228;2023-02-25T02:19:23;3.30;1.00
336;DHT22;156;48.738;9.228;2023-02-25T02:21:59;3.30;1.00
336;DHT22;156;48.738;9.228;2023-02-25T02:30:37;3.30;1.00
336;DHT22;156;48.738;9.228;2023-02-25T02:33:10;3.30;1.00
336;DHT22;156;48.738;9.228;2023-02-25T02:35:46;3.30;1.00
336;DHT22;156;48.738;9.228;2023-02-25T02:38:20;3.40;1.00
336;DHT22;156;48.738;9.228;2023-02-25T02:40:52;3.50;1.00
336;DHT22;156;48.738;9.228;2023-02-25T02:43:33;3.60;1.00
336;DHT22;156;48.738;9.228;2023-02-25T02:46:06;3.60;1.00
336;DHT22;156;48.738;9.228;2023-02-25T02:48:40;3.60;1.00
336;DHT22;156;48.738;9.228;2023-02-25T02:51:15;3.60;1.00
336;DHT22;156;48.738;9.228;2023-02-25T02:53:46;3.60;1.00
336;DHT22;156;48.738;9.228;2023-02-25T02:56:17;3.60;1.00
336;DHT22;156;48.738;9.228;2023-02-25T02:58:48;3.60;1.00
336;DHT22;156;48.738;9.228;2023-02-25T03:01:20;3.50;1.00
336;DHT22;156;48.738;9.228;2023-02-25T03:03:52;3.50;1.00
336;DHT22;156;48.738;9.228;2023-02-25T03:06:27;3.40;1.00
336;DHT22;156;48.738;9.228;2023-02-25T03:09:00;3.40;1.00
336;DHT22;156;48.738;9.228;2023-02-25T03:11:27;3.50;1.00
336;DHT22;156;48.738;9.228;2023-02-25T03:13:54;3.40;1.00
336;DHT22;156;48.738;9.228;2023-02-25T03:16:25;3.40;1.00
336;DHT22;156;48.738;9.228;2023-02-25T03:19:00;3.50;1.00
336;DHT22;156;48.738;9.228;2023-02-25T03:21:33;3.40;1.00
336;DHT22;156;48.738;9.228;2023-02-25T03:24:02;3.40;1.00
336;DHT22;156;48.738;9.228;2023-02-25T03:26:31;3.40;1.00
336;DHT22;156;48.738;9.228;2023-02-25T03:28:59;3.40;1.00
336;DHT22;156;48.738;9.228;2023-02-25T03:31:30;3.40;1.00
336;DHT22;156;48.738;9.228;2023-02-25T03:34:02;3.40;1.00
336;DHT22;156;48.738;9.228;2023-02-25T03:36:34;3.40;1.00
336;DHT22;156;48.738;9.228;2023-02-25T03:39:07;3.40;1.00
336;DHT22;156;48.738;9.228;2023-02-25T03:41:38;3.40;1.00
336;DHT22;156;48.738;9.228;2023-02-25T03:44:11;3.40;1.00
336;DHT22;156;48.738;9.228;2023-02-25T03:46:40;3.30;1.00
336;DHT22;156;48.738;9.228;2023-02-25T03:49:13;3.30;1.00
336;DHT22;156;48.738;9.228;2023-02-25T03:51:43;3.30;1.00
336;DHT22;156;48.738;9.228;2023-02-25T03:54:12;3.30;1.00
336;DHT22;156;48.738;9.228;2023-02-25T03:56:43;3.20;1.00
336;DHT22;156;48.738;9.228;2023-02-25T03:59:10;3.10;1.00
336;DHT22;156;48.738;9.228;2023-02-25T04:01:38;3.20;1.00
336;DHT22;156;48.738;9.228;2023-02-25T04:04:06;3.10;1.00
336;DHT22;156;48.738;9.228;2023-02-25T04:06:35;3.10;1.00
336;DHT22;156;48.738;9.228;2023-02-25T04:09:02;3.10;1.00
336;DHT22;156;48.738;9.228;2023-02-25T04:11:30;3.10;1.00
336;DHT22;156;48.738;9.228;2023-02-25T04:13:57;3.20;1.00
336;DHT22;156;48.738;9.228;2023-02-25T04:16:24;3.10;1.00
336;DHT22;156;48.738;9.228;2023-02-25T04:18:50;3.10;1.00
336;DHT22;156;48.738;9.228;2023-02-25T04:21:25;3.10;1.00
336;DHT22;156;48.738;9.228;2023-02-25T04:23:54;3.10;1.00
336;DHT22;156;48.738;9.228;2023-02-25T04:26:21;3.00;1.00
336;DHT22;156;48.738;9.228;2023-02-25T04:28:48;3.00;1.00
336;DHT22;156;48.738;9.228;2023-02-25T04:31:15;3.00;1.00
336;DHT22;156;48.738;9.228;2023-02-25T04:33:42;3.10;1.00
336;DHT22;156;48.738;9.228;2023-02-25T04:36:22;3.00;1.00
336;DHT22;156;48.738;9.228;2023-02-25T04:38:49;3.10;1.00
336;DHT22;156;48.738;9.228;2023-02-25T04:41:17;3.10;1.00
336;DHT22;156;48.738;9.228;2023-02-25T04:43:44;3.00;1.00
336;DHT22;156;48.738;9.228;2023-02-25T04:46:11;3.10;1.00
336;DHT22;156;48.738;9.228;2023-02-25T04:48:38;3.10;1.00
336;DHT22;156;48.738;9.228;2023-02-25T04:51:05;3.10;1.00
336;DHT22;156;48.738;9.228;2023-02-25T04:53:33;3.10;1.00
336;DHT22;156;48.738;9.228;2023-02-25T04:56:02;3.00;1.00
336;DHT22;156;48.738;9.228;2023-02-25T04:58:30;3.00;1.00
336;DHT22;156;48.738;9.228;2023-02-25T05:00:58;3.00;1.00
336;DHT22;156;48.738;9.228;2023-02-25T05:03:27;2.90;1.00
336;DHT22;156;48.738;9.228;2023-02-25T05:05:54;2.90;1.00
336;DHT22;156;48.738;9.228;2023-02-25T05:08:21;2.90;1.00
336;DHT22;156;48.738;9.228;2023-02-25T05:10:49;2.90;1.00
336;DHT22;156;48.738;9.228;2023-02-25T05:13:16;3.00;1.00
336;DHT22;156;48.738;9.228;2023-02-25T05:15:44;2.90;1.00
336;DHT22;156;48.738;9.228;2023-02-25T05:18:12;2.90;1.00
336;DHT22;156;48.738;9.228;2023-02-25T05:20:39;3.00;1.00
336;DHT22;156;48.738;9.228;2023-02-25T05:23:07;3.00;1.00
336;DHT22;156;48.738;9.228;2023-02-25T05:25:35;3.00;1.00
336;DHT22;156;48.738;9.228;2023-02-25T05:28:05;3.00;1.00
336;DHT22;156;48.738;9.228;2023-02-25T05:30:32;3.00;1.00
336;DHT22;156;48.738;9.228;2023-02-25T05:33:00;3.00;1.00
336;DHT22;156;48.738;9.228;2023-02-25T05:35:27;3.00;1.00
336;DHT22;156;48.738;9.228;2023-02-25T05:37:55;3.00;1.00
336;DHT22;156;48.738;9.228;2023-02-25T05:40:22;2.90;1.00
336;DHT22;156;48.738;9.228;2023-02-25T05:42:49;3.00;1.00
336;DHT22;156;48.738;9.228;2023-02-25T05:45:16;3.00;1.00
336;DHT22;156;48.738;9.228;2023-02-25T05:47:43;3.00;1.00
336;DHT22;156;48.738;9.228;2023-02-25T05:50:12;2.90;1.00
336;DHT22;156;48.738;9.228;2023-02-25T05:52:38;2.90;1.00
336;DHT22;156;48.738;9.228;2023-02-25T05:55:06;2.90;1.00
336;DHT22;156;48.738;9.228;2023-02-25T05:57:34;2.90;1.00
336;DHT22;156;48.738;9.228;2023-02-25T06:00:01;2.90;1.00
336;DHT22;156;48.738;9.228;2023-02-25T06:02:33;3.00;1.00
336;DHT22;156;48.738;9.228;2023-02-25T06:05:00;2.90;1.00
336;DHT22;156;48.738;9.228;2023-02-25T06:07:30;3.00;1.00
336;DHT22;156;48.738;9.228;2023-02-25T06:09:58;2.90;1.00
336;DHT22;156;48.738;9.228;2023-02-25T06:12:25;3.00;1.00
336;DHT22;156;48.738;9.228;2023-02-25T06:14:53;3.00;1.00
336;DHT22;156;48.738;9.228;2023-02-25T06:17:20;3.00;1.00
336;DHT22;156;48.738;9.228;2023-02-25T06:19:49;3.10;1.00
336;DHT22;156;48.738;9.228;2023-02-25T06:22:16;3.10;1.00
336;DHT22;156;48.738;9.228;2023-02-25T06:24:44;3.00;1.00
336;DHT22;156;48.738;9.228;2023-02-25T06:27:11;3.00;1.00
336;DHT22;156;48.738;9.228;2023-02-25T06:29:39;3.00;1.00
336;DHT22;156;48.738;9.228;2023-02-25T06:32:07;3.00;1.00
336;DHT22;156;48.738;9.228;2023-02-25T06:34:34;3.10;1.00
336;DHT22;156;48.738;9.228;2023-02-25T06:37:01;3.20;1.00
336;DHT22;156;48.738;9.228;2023-02-25T06:39:28;3.20;1.00
336;DHT22;156;48.738;9.228;2023-02-25T06:41:57;3.30;1.00
336;DHT22;156;48.738;9.228;2023-02-25T06:44:24;3.30;1.00
336;DHT22;156;48.738;9.228;2023-02-25T06:46:53;3.20;1.00
336;DHT22;156;48.738;9.228;2023-02-25T06:49:21;3.20;1.00
336;DHT22;156;48.738;9.228;2023-02-25T06:51:48;3.10;1.00
336;DHT22;156;48.738;9.228;2023-02-25T06:54:15;3.00;1.00
336;DHT22;156;48.738;9.228;2023-02-25T06:56:42;3.00;1.00
336;DHT22;156;48.738;9.228;2023-02-25T06:59:11;3.00;1.00
336;DHT22;156;48.738;9.228;2023-02-25T07:01:38;2.90;1.00
336;DHT22;156;48.738;9.228;2023-02-25T07:04:05;2.90;1.00
336;DHT22;156;48.738;9.228;2023-02-25T07:06:31;3.00;1.00
336;DHT22;156;48.738;9.228;2023-02-25T07:08:58;2.90;1.00
336;DHT22;156;48.738;9.228;2023-02-25T07:11:28;2.90;1.00
336;DHT22;156;48.738;9.228;2023-02-25T07:13:55;3.00;1.00
336;DHT22;156;48.738;9.228;2023-02-25T07:16:24;3.00;1.00
336;DHT22;156;48.738;9.228;2023-02-25T07:18:51;3.10;1.00
336;DHT22;156;48.738;9.228;2023-02-25T07:21:18;3.00;1.00
336;DHT22;156;48.738;9.228;2023-02-25T07:23:46;3.00;1.00
336;DHT22;156;48.738;9.228;2023-02-25T07:26:13;2.90;1.00
336;DHT22;156;48.738;9.228;2023-02-25T07:28:41;3.00;1.00
336;DHT22;156;48.738;9.228;2023-02-25T07:31:10;3.00;1.00
336;DHT22;156;48.738;9.228;2023-02-25T07:33:40;3.00;1.00
336;DHT22;156;48.738;9.228;2023-02-25T07:36:09;3.10;1.00
336;DHT22;156;48.738;9.228;2023-02-25T07:38:36;3.10;1.00
336;DHT22;156;48.738;9.228;2023-02-25T07:41:05;3.20;1.00
336;DHT22;156;48.738;9.228;2023-02-25T07:43:32;3.20;1.00
336;DHT22;156;48.738;9.228;2023-02-25T07:45:59;3.20;1.00
336;DHT22;156;48.738;9.228;2023-02-25T07:48:28;3.40;1.00
336;DHT22;156;48.738;9.228;2023-02-25T07:51:03;3.30;1.00
336;DHT22;156;48.738;9.228;2023-02-25T07:53:30;3.40;1.00
336;DHT22;156;48.738;9.228;2023-02-25T07:55:58;3.30;1.00
336;DHT22;156;48.738;9.228;2023-02-25T07:58:24;3.30;1.00
336;DHT22;156;48.738;9.228;2023-02-25T08:00:53;3.20;1.00
336;DHT22;156;48.738;9.228;2023-02-25T08:03:22;3.20;1.00
336;DHT22;156;48.738;9.228;2023-02-25T08:05:50;3.20;1.00
336;DHT22;156;48.738;9.228;2023-02-25T08:08:20;3.30;1.00
336;DHT22;156;48.738;9.228;2023-02-25T08:10:48;3.30;1.00
336;DHT22;156;48.738;9.228;2023-02-25T08:13:15;3.30;1.00
336;DHT22;156;48.738;9.228;2023-02-25T08:15:42;3.20;1.00
336;DHT22;156;48.738;9.228;2023-02-25T08:18:09;3.20;1.00
336;DHT22;156;48.738;9.228;2023-02-25T08:20:36;3.30;1.00
336;DHT22;156;48.738;9.228;2023-02-25T08:23:04;3.30;1.00
336;DHT22;156;48.738;9.228;2023-02-25T08:25:32;3.30;1.00
336;DHT22;156;48.738;9.228;2023-02-25T08:27:59;3.40;1.00
336;DHT22;156;48.738;9.228;2023-02-25T08:30:26;3.40;1.00
336;DHT22;156;48.738;9.228;2023-02-25T08:32:53;3.50;1.00
336;DHT22;156;48.738;9.228;2023-02-25T08:35:22;3.60;1.00
336;DHT22;156;48.738;9.228;2023-02-25T08:37:50;3.60;1.00
336;DHT22;156;48.738;9.228;2023-02-25T08:40:17;3.50;1.00
336;DHT22;156;48.738;9.228;2023-02-25T08:42:45;3.40;1.00
336;DHT22;156;48.738;9.228;2023-02-25T08:45:12;3.50;1.00
336;DHT22;156;48.738;9.228;2023-02-25T08:47:39;3.50;1.00
336;DHT22;156;48.738;9.228;2023-02-25T08:50:09;3.50;1.00
336;DHT22;156;48.738;9.228;2023-02-25T08:52:39;3.60;1.00
336;DHT22;156;48.738;9.228;2023-02-25T08:55:06;3.70;1.00
336;DHT22;156;48.738;9.228;2023-02-25T08:57:33;3.70;1.00
336;DHT22;156;48.738;9.228;2023-02-25T09:00:02;3.80;1.00
336;DHT22;156;48.738;9.228;2023-02-25T09:02:31;4.00;1.00
336;DHT22;156;48.738;9.228;2023-02-25T09:04:58;3.90;1.00
336;DHT22;156;48.738;9.228;2023-02-25T09:07:25;3.80;1.00
336;DHT22;156;48.738;9.228;2023-02-25T09:09:52;3.70;1.00
336;DHT22;156;48.738;9.228;2023-02-25T09:12:19;3.70;1.00
336;DHT22;156;48.738;9.228;2023-02-25T09:14:46;3.80;1.00
336;DHT22;156;48.738;9.228;2023-02-25T09:17:15;3.70;1.00
336;DHT22;156;48.738;9.228;2023-02-25T09:19:42;3.60;1.00
336;DHT22;156;48.738;9.228;2023-02-25T09:22:09;3.60;1.00
336;DHT22;156;48.738;9.228;2023-02-25T09:24:36;3.80;1.00
336;DHT22;156;48.738;9.228;2023-02-25T09:27:03;3.90;1.00
336;DHT22;156;48.738;9.228;2023-02-25T09:29:32;3.90;1.00
336;DHT22;156;48.738;9.228;2023-02-25T09:31:59;3.90;1.00
336;DHT22;156;48.738;9.228;2023-02-25T09:34:27;3.90;1.00
336;DHT22;156;48.738;9.228;2023-02-25T09:36:54;3.80;1.00
336;DHT22;156;48.738;9.228;2023-02-25T09:39:21;3.80;1.00
336;DHT22;156;48.738;9.228;2023-02-25T09:41:50;3.80;1.00
336;DHT22;156;48.738;9.228;2023-02-25T09:44:20;3.70;1.00
336;DHT22;156;48.738;9.228;2023-02-25T09:46:51;3.80;1.00
336;DHT22;156;48.738;9.228;2023-02-25T09:49:23;3.80;1.00
336;DHT22;156;48.738;9.228;2023-02-25T09:51:57;3.90;1.00
336;DHT22;156;48.738;9.228;2023-02-25T09:54:30;4.00;1.00
336;DHT22;156;48.738;9.228;2023-02-25T09:57:00;4.10;1.00
336;DHT22;156;48.738;9.228;2023-02-25T09:59:28;4.30;1.00
336;DHT22;156;48.738;9.228;2023-02-25T10:01:58;4.60;1.00
336;DHT22;156;48.738;9.228;2023-02-25T10:04:31;4.80;1.00
336;DHT22;156;48.738;9.228;2023-02-25T10:07:07;4.90;1.00
336;DHT22;156;48.738;9.228;2023-02-25T10:09:42;4.90;1.00
336;DHT22;156;48.738;9.228;2023-02-25T10:12:18;4.90;1.00
336;DHT22;156;48.738;9.228;2023-02-25T10:15:23;4.80;1.00
336;DHT22;156;48.738;9.228;2023-02-25T10:18:05;4.70;1.00
336;DHT22;156;48.738;9.228;2023-02-25T10:21:00;4.60;1.00
336;DHT22;156;48.738;9.228;2023-02-25T10:23:47;4.60;1.00
336;DHT22;156;48.738;9.228;2023-02-25T10:26:19;5.70;1.00
336;DHT22;156;48.738;9.228;2023-02-25T10:28:50;4.60;1.00
336;DHT22;156;48.738;9.228;2023-02-25T10:31:21;4.40;1.00
336;DHT22;156;48.738;9.228;2023-02-25T10:33:50;4.50;1.00
336;DHT22;156;48.738;9.228;2023-02-25T10:36:20;4.40;1.00
336;DHT22;156;48.738;9.228;2023-02-25T10:38:50;4.50;1.00
336;DHT22;156;48.738;9.228;2023-02-25T10:41:18;4.90;1.00
336;DHT22;156;48.738;9.228;2023-02-25T10:43:48;4.90;1.00
336;DHT22;156;48.738;9.228;2023-02-25T10:46:20;4.90;1.00
336;DHT22;156;48.738;9.228;2023-02-25T10:48:54;4.90;1.00
336;DHT22;156;48.738;9.228;2023-02-25T10:51:22;4.90;1.00
336;DHT22;156;48.738;9.228;2023-02-25T10:54:05;4.80;1.00
336;DHT22;156;48.738;9.228;2023-02-25T10:56:38;4.70;1.00
336;DHT22;156;48.738;9.228;2023-02-25T10:59:23;4.60;1.00
336;DHT22;156;48.738;9.228;2023-02-25T11:01:52;4.60;1.00
336;DHT22;156;48.738;9.228;2023-02-25T11:04:23;4.60;1.00
336;DHT22;156;48.738;9.228;2023-02-25T11:06:50;4.60;1.00
336;DHT22;156;48.738;9.228;2023-02-25T11:09:32;4.60;1.00
336;DHT22;156;48.738;9.228;2023-02-25T11:12:10;4.50;1.00
336;DHT22;156;48.738;9.228;2023-02-25T11:14:38;4.50;1.00
336;DHT22;156;48.738;9.228;2023-02-25T11:17:10;4.60;1.00
336;DHT22;156;48.738;9.228;2023-02-25T11:19:40;4.60;1.00
336;DHT22;156;48.738;9.228;2023-02-25T11:22:10;4.50;1.00
336;DHT22;156;48.738;9.228;2023-02-25T11:24:43;4.50;1.00
336;DHT22;156;48.738;9.228;2023-02-25T11:27:25;4.60;1.00
336;DHT22;156;48.738;9.228;2023-02-25T11:30:02;4.70;1.00
336;DHT22;156;48.738;9.228;2023-02-25T11:32:30;4.90;1.00
336;DHT22;156;48.738;9.228;2023-02-25T11:35:01;5.00;1.00
336;DHT22;156;48.738;9.228;2023-02-25T11:37:39;5.20;1.00
336;DHT22;156;48.738;9.228;2023-02-25T11:40:24;5.10;1.00
336;DHT22;156;48.738;9.228;2023-02-25T11:43:13;5.10;1.00
336;DHT22;156;48.738;9.228;2023-02-25T11:45:49;4.80;1.00
336;DHT22;156;48.738;9.228;2023-02-25T11:48:19;4.50;1.00
336;DHT22;156;48.738;9.228;2023-02-25T11:50:52;4.70;1.00
336;DHT22;156;48.738;9.228;2023-02-25T11:53:30;4.50;1.00
336;DHT22;156;48.738;9.228;2023-02-25T11:56:08;4.60;1.00
336;DHT22;156;48.738;9.228;2023-02-25T11:58:47;4.60;1.00
336;DHT22;156;48.738;9.228;2023-02-25T12:01:24;4.60;1.00
336;DHT22;156;48.738;9.228;2023-02-25T12:07:24;4.50;1.00
336;DHT22;156;48.738;9.228;2023-02-25T12:10:20;4.70;1.00
336;DHT22;156;48.738;9.228;2023-02-25T12:13:26;4.60;1.00
336;DHT22;156;48.738;9.228;2023-02-25T12:19:40;4.50;1.00
336;DHT22;156;48.738;9.228;2023-02-25T12:25:40;4.80;1.00
336;DHT22;156;48.738;9.228;2023-02-25T12:28:39;4.90;1.00
336;DHT22;156;48.738;9.228;2023-02-25T12:31:35;5.10;1.00
336;DHT22;156;48.738;9.228;2023-02-25T12:37:45;4.80;1.00
336;DHT22;156;48.738;9.228;2023-02-25T12:40:31;4.70;1.00
336;DHT22;156;48.738;9.228;2023-02-25T12:43:10;4.50;1.00
336;DHT22;156;48.738;9.228;2023-02-25T12:46:04;4.50;1.00
336;DHT22;156;48.738;9.228;2023-02-25T12:49:08;4.60;1.00
336;DHT22;156;48.738;9.228;2023-02-25T12:51:59;4.60;1.00
336;DHT22;156;48.738;9.228;2023-02-25T12:54:57;4.60;1.00
336;DHT22;156;48.738;9.228;2023-02-25T12:57:38;4.50;1.00
336;DHT22;156;48.738;9.228;2023-02-25T13:00:41;4.30;1.00
336;DHT22;156;48.738;9.228;2023-02-25T13:03:29;4.30;1.00
336;DHT22;156;48.738;9.228;2023-02-25T13:06:32;4.20;1.00
336;DHT22;156;48.738;9.228;2023-02-25T13:09:25;4.10;1.00
336;DHT22;156;48.738;9.228;2023-02-25T13:12:15;3.90;1.00
336;DHT22;156;48.738;9.228;2023-02-25T13:15:03;3.80;1.00
336;DHT22;156;48.738;9.228;2023-02-25T13:17:50;3.90;1.00
336;DHT22;156;48.738;9.228;2023-02-25T13:23:58;3.60;1.00
336;DHT22;156;48.738;9.228;2023-02-25T13:26:46;3.80;1.00
336;DHT22;156;48.738;9.228;2023-02-25T13:29:38;3.60;1.00
336;DHT22;156;48.738;9.228;2023-02-25T13:32:18;3.60;1.00
336;DHT22;156;48.738;9.228;2023-02-25T13:35:01;3.50;1.00
336;DHT22;156;48.738;9.228;2023-02-25T13:37:40;3.40;1.00
336;DHT22;156;48.738;9.228;2023-02-25T13:40:33;3.70;1.00
336;DHT22;156;48.738;9.228;2023-02-25T13:43:37;3.50;1.00
336;DHT22;156;48.738;9.228;2023-02-25T13:46:32;3.50;1.00
336;DHT22;156;48.738;9.228;2023-02-25T13:49:29;3.50;1.00
336;DHT22;156;48.738;9.228;2023-02-25T13:52:06;3.60;1.00
336;DHT22;156;48.738;9.228;2023-02-25T13:55:01;3.80;1.00
336;DHT22;156;48.738;9.228;2023-02-25T13:57:53;3.90;1.00
336;DHT22;156;48.738;9.228;2023-02-25T14:00:38;3.90;1.00
336;DHT22;156;48.738;9.228;2023-02-25T14:03:38;4.10;1.00
336;DHT22;156;48.738;9.228;2023-02-25T14:06:17;4.20;1.00
336;DHT22;156;48.738;9.228;2023-02-25T14:09:09;4.20;1.00
336;DHT22;156;48.738;9.228;2023-02-25T14:11:46;4.30;1.00
336;DHT22;156;48.738;9.228;2023-02-25T14:17:25;4.60;1.00
336;DHT22;156;48.738;9.228;2023-02-25T14:20:06;5.20;1.00
336;DHT22;156;48.738;9.228;2023-02-25T14:22:40;5.60;1.00
336;DHT22;156;48.738;9.228;2023-02-25T14:25:19;5.70;1.00
336;DHT22;156;48.738;9.228;2023-02-25T14:27:58;5.90;1.00
336;DHT22;156;48.738;9.228;2023-02-25T14:30:35;6.30;1.00
336;DHT22;156;48.738;9.228;2023-02-25T14:33:16;6.10;1.00
336;DHT22;156;48.738;9.228;2023-02-25T14:36:01;6.40;1.00
336;DHT22;156;48.738;9.228;2023-02-25T14:38:40;6.20;1.00
336;DHT22;156;48.738;9.228;2023-02-25T14:41:26;6.00;1.00
336;DHT22;156;48.738;9.228;2023-02-25T14:43:58;5.60;1.00
336;DHT22;156;48.738;9.228;2023-02-25T14:46:30;5.40;1.00
336;DHT22;156;48.738;9.228;2023-02-25T14:49:04;5.30;1.00
336;DHT22;156;48.738;9.228;2023-02-25T14:58:23;5.20;1.00
336;DHT22;156;48.738;9.228;2023-02-25T15:01:19;5.20;1.00
336;DHT22;156;48.738;9.228;2023-02-25T15:04:16;5.10;1.00
336;DHT22;156;48.738;9.228;2023-02-25T15:07:05;5.00;1.00
336;DHT22;156;48.738;9.228;2023-02-25T15:12:59;4.80;1.00
336;DHT22;156;48.738;9.228;2023-02-25T15:19:06;4.70;1.00
336;DHT22;156;48.738;9.228;2023-02-25T15:21:44;4.70;1.00
336;DHT22;156;48.738;9.228;2023-02-25T15:26:59;4.70;1.00
336;DHT22;156;48.738;9.228;2023-02-25T15:29:56;4.70;1.00
336;DHT22;156;48.738;9.228;2023-02-25T15:32:52;4.70;1.00
336;DHT22;156;48.738;9.228;2023-02-25T15:42:10;5.10;1.00
336;DHT22;156;48.738;9.228;2023-02-25T15:45:42;4.70;1.00
336;DHT22;156;48.738;9.228;2023-02-25T15:48:35;5.10;1.00
336;DHT22;156;48.738;9.228;2023-02-25T15:51:11;4.70;1.00
336;DHT22;156;48.738;9.228;2023-02-25T15:57:37;3.30;1.00
336;DHT22;156;48.738;9.228;2023-02-25T16:03:26;4.40;1.00
336;DHT22;156;48.738;9.228;2023-02-25T16:05:54;4.40;1.00
336;DHT22;156;48.738;9.228;2023-02-25T16:08:27;4.40;1.00
336;DHT22;156;48.738;9.228;2023-02-25T16:10:59;4.40;1.00
336;DHT22;156;48.738;9.228;2023-02-25T16:13:31;4.40;1.00
336;DHT22;156;48.738;9.228;2023-02-25T16:16:00;4.30;1.00
336;DHT22;156;48.738;9.228;2023-02-25T16:18:31;4.30;1.00
336;DHT22;156;48.738;9.228;2023-02-25T16:21:02;4.10;1.00
336;DHT22;156;48.738;9.228;2023-02-25T16:23:30;3.80;1.00
336;DHT22;156;48.738;9.228;2023-02-25T16:26:04;3.40;1.00
336;DHT22;156;48.738;9.228;2023-02-25T16:28:38;3.20;1.00
336;DHT22;156;48.738;9.228;2023-02-25T16:31:17;3.10;1.00
336;DHT22;156;48.738;9.228;2023-02-25T16:33:48;2.70;1.00
336;DHT22;156;48.738;9.228;2023-02-25T16:36:26;2.60;1.00
336;DHT22;156;48.738;9.228;2023-02-25T16:39:00;2.50;1.00
336;DHT22;156;48.738;9.228;2023-02-25T16:41:28;2.40;1.00
336;DHT22;156;48.738;9.228;2023-02-25T16:44:00;2.50;1.00
336;DHT22;156;48.738;9.228;2023-02-25T16:46:32;3.20;1.00
336;DHT22;156;48.738;9.228;2023-02-25T16:49:01;2.50;1.00
336;DHT22;156;48.738;9.228;2023-02-25T16:51:38;2.60;1.00
336;DHT22;156;48.738;9.228;2023-02-25T16:54:10;2.60;1.00
336;DHT22;156;48.738;9.228;2023-02-25T16:56:39;2.70;1.00
336;DHT22;156;48.738;9.228;2023-02-25T16:59:17;2.80;1.00
336;DHT22;156;48.738;9.228;2023-02-25T17:01:52;2.80;1.00
336;DHT22;156;48.738;9.228;2023-02-25T17:04:25;2.80;1.00
336;DHT22;156;48.738;9.228;2023-02-25T17:07:10;2.80;1.00
336;DHT22;156;48.738;9.228;2023-02-25T17:09:46;2.80;1.00
336;DHT22;156;48.738;9.228;2023-02-25T17:12:17;2.80;1.00
336;DHT22;156;48.738;9.228;2023-02-25T17:14:47;2.80;1.00
336;DHT22;156;48.738;9.228;2023-02-25T17:17:20;2.80;1.00
336;DHT22;156;48.738;9.228;2023-02-25T17:19:50;2.80;1.00
336;DHT22;156;48.738;9.228;2023-02-25T17:22:19;2.80;1.00
336;DHT22;156;48.738;9.228;2023-02-25T17:24:48;2.80;1.00
336;DHT22;156;48.738;9.228;2023-02-25T17:27:16;2.80;1.00
336;DHT22;156;48.738;9.228;2023-02-25T17:29:43;2.80;1.00
336;DHT22;156;48.738;9.228;2023-02-25T17:32:21;2.80;1.00
336;DHT22;156;48.738;9.228;2023-02-25T17:34:50;2.80;1.00
336;DHT22;156;48.738;9.228;2023-02-25T17:37:18;2.80;1.00
336;DHT22;156;48.738;9.228;2023-02-25T17:39:47;2.80;1.00
336;DHT22;156;48.738;9.228;2023-02-25T17:42:32;2.70;1.00
336;DHT22;156;48.738;9.228;2023-02-25T17:44:59;2.70;1.00
336;DHT22;156;48.738;9.228;2023-02-25T17:47:30;2.70;1.00
336;DHT22;156;48.738;9.228;2023-02-25T17:50:01;2.10;1.00
336;DHT22;156;48.738;9.228;2023-02-25T17:52:37;1.90;1.00
336;DHT22;156;48.738;9.228;2023-02-25T17:55:16;1.10;25.20
336;DHT22;156;48.738;9.228;2023-02-25T17:57:46;1.00;44.40
336;DHT22;156;48.738;9.228;2023-02-25T18:00:21;0.90;64.00
336;DHT22;156;48.738;9.228;2023-02-25T18:03:06;0.70;83.70
336;DHT22;156;48.738;9.228;2023-02-25T18:05:47;0.60;95.50
336;DHT22;156;48.738;9.228;2023-02-25T18:08:16;0.50;99.90
336;DHT22;156;48.738;9.228;2023-02-25T18:10:52;0.50;99.90
336;DHT22;156;48.738;9.228;2023-02-25T18:13:30;0.40;99.90
336;DHT22;156;48.738;9.228;2023-02-25T18:16:36;0.30;99.90
336;DHT22;156;48.738;9.228;2023-02-25T18:19:35;0.40;99.90
336;DHT22;156;48.738;9.228;2023-02-25T18:22:05;0.40;99.90
336;DHT22;156;48.738;9.228;2023-02-25T18:24:36;0.40;99.90
336;DHT22;156;48.738;9.228;2023-02-25T18:27:18;0.30;99.90
336;DHT22;156;48.738;9.228;2023-02-25T18:29:45;0.40;99.90
336;DHT22;156;48.738;9.228;2023-02-25T18:32:12;0.30;99.90
336;DHT22;156;48.738;9.228;2023-02-25T18:34:40;0.30;99.90
336;DHT22;156;48.738;9.228;2023-02-25T18:37:11;0.30;99.90
336;DHT22;156;48.738;9.228;2023-02-25T18:39:38;0.20;99.90
336;DHT22;156;48.738;9.228;2023-02-25T18:42:07;0.30;99.90